Kezdőlap
METAR-TAF:

METAR-TAF

Repülőterek :

Tétouan, Marokkó

földrajzi szélesség: 35-35N, földrajzi hosszúság: 005-20W, magasság: 10 m

Jelenlegi meteorológiai megfigyelések

A jelentés 27 perccel ezelõtt készült, 23:00 UTC
Nyugat-délnyugati szél 12 kt
Hőmérséklet 24°C
Páratartalom 50%
Légköri nyomás 1012 hPa
Látótávolság 10 km, vagy több
felhőtlen 1500 m magasságban, és nincs gomolyfelhõ

METAR: GMTN 172300Z 24012KT CAVOK 24/13 Q1012 NOSIG

Idő: 00:27 (23:27 UTC)


TAF: hiányzik

Meteorológiai megfigyelések és előrejelzések több, mint 4000 repülőtéren (METAR és TAF jelentéseket).

A térképen piros és sárga pontok jelzik az elérhető meteorológiai állomásokat.

Mozgassa az egeret a pont fölött, hogy megjelenjen az állomás neve.

Azután kattintson az időjárási megfigyelések és előrejelzések megtekintéséhez.

A térkép megváltoztatása: kattintson a fekete keresztel jelölt zöld gombra ráközelítéshez, a vonallal jelölt zöld gombra távolításhoz, vagy a zöld nyilakra a szomszédos térképek eléréséhez.


METAR-TAF: